createdAt,value
2019-03-31T00:02:18.091Z,4.50
2019-03-31T00:04:49.908Z,4.70
2019-03-31T00:07:22.769Z,4.80
2019-03-31T00:09:53.775Z,4.80
2019-03-31T00:12:26.453Z,4.70
2019-03-31T00:15:01.833Z,4.60
2019-03-31T00:17:33.840Z,4.60
2019-03-31T00:20:04.472Z,4.50
2019-03-31T00:22:37.415Z,4.40
2019-03-31T00:25:08.678Z,4.40
2019-03-31T00:27:43.405Z,4.40
2019-03-31T00:30:13.505Z,4.40
2019-03-31T00:32:47.539Z,4.40
2019-03-31T00:35:19.508Z,4.40
2019-03-31T00:37:52.075Z,4.30
2019-03-31T00:40:23.271Z,4.20
2019-03-31T00:42:55.945Z,4.20
2019-03-31T00:45:27.371Z,4.20
2019-03-31T00:47:59.466Z,4.20
2019-03-31T00:50:31.355Z,4.10
2019-03-31T00:53:05.841Z,4.10
2019-03-31T00:55:37.717Z,4.20
2019-03-31T00:58:08.178Z,4.00
2019-03-31T01:00:55.584Z,3.90
2019-03-31T01:03:28.842Z,4.00
2019-03-31T01:06:03.793Z,4.00
2019-03-31T01:08:38.317Z,4.00
2019-03-31T01:11:15.916Z,4.20
2019-03-31T01:13:49.460Z,4.10
2019-03-31T01:16:23.820Z,3.90
2019-03-31T01:18:56.552Z,4.00
2019-03-31T01:21:33.549Z,4.00
2019-03-31T01:24:04.699Z,4.00
2019-03-31T01:26:35.996Z,3.90
2019-03-31T01:29:07.861Z,3.90
2019-03-31T01:31:49.596Z,3.90
2019-03-31T01:34:14.604Z,3.80
2019-03-31T01:36:46.857Z,3.70
2019-03-31T01:39:24.224Z,3.80
2019-03-31T01:41:58.502Z,3.90
2019-03-31T01:44:29.190Z,3.90
2019-03-31T01:47:00.550Z,3.90
2019-03-31T01:49:31.233Z,3.80
2019-03-31T01:52:01.276Z,3.80
2019-03-31T01:54:34.081Z,3.70
2019-03-31T01:57:07.086Z,3.70
2019-03-31T01:59:41.432Z,3.70
2019-03-31T02:02:19.217Z,3.70
2019-03-31T02:04:50.480Z,3.70
2019-03-31T02:07:23.432Z,3.60
2019-03-31T02:09:55.453Z,3.50
2019-03-31T02:12:28.101Z,3.40
2019-03-31T02:15:00.044Z,3.40
2019-03-31T02:17:32.320Z,3.30
2019-03-31T02:20:03.396Z,3.20
2019-03-31T02:22:35.860Z,3.20
2019-03-31T02:25:08.929Z,3.40
2019-03-31T02:27:39.429Z,3.30
2019-03-31T02:30:10.774Z,3.40
2019-03-31T02:32:45.531Z,3.40
2019-03-31T02:35:17.793Z,3.40
2019-03-31T02:37:50.471Z,3.40
2019-03-31T02:40:22.393Z,3.50
2019-03-31T02:42:52.304Z,3.40
2019-03-31T02:45:22.543Z,3.40
2019-03-31T02:47:58.295Z,3.40
2019-03-31T02:50:38.245Z,3.50
2019-03-31T02:53:10.977Z,3.40
2019-03-31T02:55:44.266Z,3.40
2019-03-31T02:58:15.808Z,3.20
2019-03-31T03:00:47.124Z,3.20
2019-03-31T03:03:18.985Z,3.30
2019-03-31T03:05:50.963Z,3.20
2019-03-31T03:08:24.629Z,3.30
2019-03-31T03:10:58.424Z,3.50
2019-03-31T03:13:37.114Z,3.40
2019-03-31T03:16:23.261Z,3.50
2019-03-31T03:18:54.274Z,3.60
2019-03-31T03:21:26.335Z,3.40
2019-03-31T03:23:57.525Z,3.50
2019-03-31T03:26:28.024Z,3.60
2019-03-31T03:29:02.797Z,3.30
2019-03-31T03:31:35.143Z,3.30
2019-03-31T03:34:11.246Z,3.20
2019-03-31T03:36:43.699Z,3.20
2019-03-31T03:39:17.387Z,3.50
2019-03-31T03:41:48.064Z,3.40
2019-03-31T03:44:19.835Z,3.30
2019-03-31T03:46:49.812Z,3.30
2019-03-31T03:49:19.630Z,3.40
2019-03-31T03:51:51.644Z,3.40
2019-03-31T03:54:26.280Z,3.40
2019-03-31T03:57:00.667Z,3.10
2019-03-31T03:59:31.598Z,3.00
2019-03-31T04:02:03.298Z,2.90
2019-03-31T04:04:35.494Z,3.10
2019-03-31T04:07:07.864Z,3.20
2019-03-31T04:09:39.604Z,2.70
2019-03-31T04:12:13.434Z,2.80
2019-03-31T04:14:46.872Z,2.70
2019-03-31T04:17:18.243Z,2.60
2019-03-31T04:19:49.475Z,2.60
2019-03-31T04:22:21.593Z,2.30
2019-03-31T04:24:54.392Z,2.60
2019-03-31T04:27:30.127Z,2.40
2019-03-31T04:30:02.963Z,2.40
2019-03-31T04:32:33.514Z,2.30
2019-03-31T04:35:04.204Z,2.30
2019-03-31T04:37:34.120Z,2.40
2019-03-31T04:40:03.537Z,2.50
2019-03-31T04:42:34.219Z,2.40
2019-03-31T04:45:05.901Z,2.30
2019-03-31T04:47:37.769Z,2.20
2019-03-31T04:50:10.995Z,2.20
2019-03-31T04:52:44.514Z,2.20
2019-03-31T04:55:18.448Z,2.40
2019-03-31T04:57:51.063Z,2.30
2019-03-31T05:00:23.816Z,2.30
2019-03-31T05:02:57.923Z,2.10
2019-03-31T05:05:31.081Z,2.00
2019-03-31T05:08:02.932Z,2.00
2019-03-31T05:10:36.985Z,1.90
2019-03-31T05:13:10.794Z,2.00
2019-03-31T05:15:41.077Z,2.00
2019-03-31T05:18:13.157Z,2.00
2019-03-31T05:20:44.928Z,2.10
2019-03-31T05:23:17.033Z,2.10
2019-03-31T05:25:47.964Z,2.10
2019-03-31T05:28:18.910Z,2.00
2019-03-31T05:30:50.038Z,2.00
2019-03-31T05:33:20.154Z,1.90
2019-03-31T05:35:52.952Z,1.70
2019-03-31T05:38:25.240Z,1.50
2019-03-31T05:40:57.877Z,1.70
2019-03-31T05:43:31.283Z,1.50
2019-03-31T05:46:05.480Z,1.70
2019-03-31T05:48:38.261Z,1.60
2019-03-31T05:51:09.416Z,1.40
2019-03-31T05:53:41.764Z,1.60
2019-03-31T05:56:12.667Z,1.60
2019-03-31T05:58:45.044Z,1.60
2019-03-31T06:01:19.936Z,1.50
2019-03-31T06:03:55.116Z,1.70
2019-03-31T06:06:29.336Z,1.80
2019-03-31T06:09:01.045Z,1.90
2019-03-31T06:11:34.735Z,2.00
2019-03-31T06:14:10.152Z,2.00
2019-03-31T06:16:42.897Z,2.20
2019-03-31T06:19:15.202Z,2.40
2019-03-31T06:21:51.074Z,2.30
2019-03-31T06:24:21.641Z,2.40
2019-03-31T06:26:54.005Z,2.40
2019-03-31T06:29:27.050Z,2.70
2019-03-31T06:31:59.236Z,2.70
2019-03-31T06:34:46.891Z,2.70
2019-03-31T06:37:08.009Z,2.90
2019-03-31T06:39:40.712Z,2.80
2019-03-31T06:42:12.940Z,2.80
2019-03-31T06:44:46.247Z,2.80
2019-03-31T06:47:16.592Z,2.70
2019-03-31T06:49:48.267Z,2.70
2019-03-31T06:52:21.899Z,2.70
2019-03-31T06:54:53.956Z,2.70
2019-03-31T06:57:24.426Z,2.70
2019-03-31T06:59:53.753Z,2.70
2019-03-31T07:02:25.192Z,3.10
2019-03-31T07:05:01.103Z,3.00
2019-03-31T07:07:30.328Z,2.90
2019-03-31T07:10:02.450Z,2.90
2019-03-31T07:12:35.125Z,2.90
2019-03-31T07:15:07.137Z,3.00
2019-03-31T07:17:37.899Z,3.10
2019-03-31T07:20:09.845Z,2.90
2019-03-31T07:22:42.620Z,3.20
2019-03-31T07:25:12.623Z,3.30
2019-03-31T07:27:42.397Z,3.40
2019-03-31T07:30:11.962Z,3.40
2019-03-31T07:32:44.300Z,3.30
2019-03-31T07:35:18.761Z,3.40
2019-03-31T07:37:48.027Z,3.10
2019-03-31T07:40:18.603Z,3.10
2019-03-31T07:42:51.055Z,3.10
2019-03-31T07:45:22.524Z,3.10
2019-03-31T07:48:02.042Z,3.30
2019-03-31T07:50:32.525Z,3.40
2019-03-31T07:53:04.316Z,3.10
2019-03-31T07:55:40.105Z,3.10
2019-03-31T07:58:12.831Z,3.40
2019-03-31T08:00:45.546Z,3.50
2019-03-31T08:03:19.735Z,3.40
2019-03-31T08:05:52.481Z,3.40
2019-03-31T08:08:24.588Z,3.40
2019-03-31T08:10:56.855Z,3.60
2019-03-31T08:13:32.644Z,3.40
2019-03-31T08:16:08.589Z,3.40
2019-03-31T08:18:41.289Z,3.50
2019-03-31T08:21:13.143Z,3.50
2019-03-31T08:23:45.864Z,3.60
2019-03-31T08:26:19.984Z,3.70
2019-03-31T08:28:51.764Z,3.70
2019-03-31T08:31:22.408Z,3.50
2019-03-31T08:33:55.109Z,3.60
2019-03-31T08:36:26.408Z,3.50
2019-03-31T08:38:57.824Z,3.50
2019-03-31T08:41:30.164Z,3.50
2019-03-31T08:44:02.824Z,3.70
2019-03-31T08:46:34.027Z,3.50
2019-03-31T08:49:05.685Z,3.70
2019-03-31T08:51:39.051Z,3.50
2019-03-31T08:54:12.309Z,3.60
2019-03-31T08:56:45.357Z,3.80
2019-03-31T08:59:18.055Z,3.70
2019-03-31T09:01:50.198Z,3.70
2019-03-31T09:04:25.224Z,3.60
2019-03-31T09:06:57.368Z,3.50
2019-03-31T09:09:27.193Z,3.60
2019-03-31T09:12:01.199Z,3.50
2019-03-31T09:14:36.040Z,3.60
2019-03-31T09:17:06.901Z,3.70
2019-03-31T09:19:37.347Z,3.50
2019-03-31T09:22:09.914Z,3.70
2019-03-31T09:24:41.736Z,3.60
2019-03-31T09:27:17.057Z,3.70
2019-03-31T09:29:50.255Z,3.70
2019-03-31T09:32:23.049Z,3.60
2019-03-31T09:34:55.312Z,3.70
2019-03-31T09:37:27.600Z,3.90
2019-03-31T09:40:01.466Z,4.00
2019-03-31T09:42:33.609Z,4.00
2019-03-31T09:45:07.372Z,3.80
2019-03-31T09:47:39.160Z,4.00
2019-03-31T09:50:16.684Z,4.20
2019-03-31T09:52:45.802Z,4.00
2019-03-31T09:55:22.859Z,4.10
2019-03-31T09:57:53.376Z,4.00
2019-03-31T10:00:36.424Z,4.00
2019-03-31T10:03:07.955Z,4.10
2019-03-31T10:05:42.509Z,4.00
2019-03-31T10:08:17.589Z,4.20
2019-03-31T10:10:49.405Z,4.10
2019-03-31T10:13:21.572Z,4.10
2019-03-31T10:15:54.414Z,4.20
2019-03-31T10:18:26.709Z,4.40
2019-03-31T10:20:58.854Z,4.30
2019-03-31T10:23:30.230Z,4.30
2019-03-31T10:25:59.568Z,4.40
2019-03-31T10:28:32.334Z,4.40
2019-03-31T10:31:04.140Z,4.50
2019-03-31T10:33:38.280Z,4.60
2019-03-31T10:36:12.915Z,4.40
2019-03-31T10:38:46.736Z,4.70
2019-03-31T10:41:17.993Z,4.60
2019-03-31T10:43:50.971Z,4.80
2019-03-31T10:46:22.952Z,4.60
2019-03-31T10:48:56.837Z,4.60
2019-03-31T10:51:29.737Z,4.60
2019-03-31T10:54:04.730Z,4.50
2019-03-31T10:56:37.748Z,4.90
2019-03-31T10:59:12.520Z,5.00
2019-03-31T11:01:43.843Z,5.10
2019-03-31T11:04:16.200Z,5.20
2019-03-31T11:06:58.937Z,5.00
2019-03-31T11:09:25.311Z,5.10
2019-03-31T11:11:56.689Z,5.10
2019-03-31T11:14:30.231Z,5.00
2019-03-31T11:17:05.621Z,5.20
2019-03-31T11:19:36.533Z,5.40
2019-03-31T11:22:29.118Z,5.20
2019-03-31T11:25:04.548Z,5.20
2019-03-31T11:27:37.348Z,5.50
2019-03-31T11:30:10.417Z,5.30
2019-03-31T11:32:42.164Z,5.50
2019-03-31T11:35:14.000Z,5.30
2019-03-31T11:37:46.124Z,5.60
2019-03-31T11:40:18.085Z,5.70
2019-03-31T11:42:50.277Z,5.50
2019-03-31T11:45:23.116Z,5.90
2019-03-31T11:47:56.886Z,5.80
2019-03-31T11:50:29.253Z,5.90
2019-03-31T11:53:06.945Z,5.90
2019-03-31T11:55:39.864Z,6.20
2019-03-31T11:58:13.387Z,5.90
2019-03-31T12:00:49.077Z,6.10
2019-03-31T12:03:22.990Z,6.00
2019-03-31T12:05:54.060Z,6.00
2019-03-31T12:08:26.644Z,6.00
2019-03-31T12:11:01.991Z,6.00
2019-03-31T12:13:33.642Z,6.00
2019-03-31T12:16:04.087Z,6.50
2019-03-31T12:18:34.218Z,6.10
2019-03-31T12:21:03.942Z,6.20
2019-03-31T12:23:36.702Z,6.20
2019-03-31T12:26:08.343Z,6.30
2019-03-31T12:28:41.055Z,6.30
2019-03-31T12:31:11.657Z,6.40
2019-03-31T12:33:42.468Z,6.30
2019-03-31T12:36:12.499Z,6.30
2019-03-31T12:38:45.070Z,6.30
2019-03-31T12:41:21.542Z,6.50
2019-03-31T12:43:52.393Z,6.30
2019-03-31T12:46:24.518Z,6.50
2019-03-31T12:48:54.072Z,6.50
2019-03-31T12:51:29.514Z,6.30
2019-03-31T12:54:03.892Z,6.50
2019-03-31T12:56:39.112Z,6.80
2019-03-31T12:59:10.301Z,6.80
2019-03-31T13:01:42.649Z,6.50
2019-03-31T13:04:13.706Z,6.50
2019-03-31T13:06:48.426Z,6.60
2019-03-31T13:09:22.444Z,6.70
2019-03-31T13:11:54.468Z,6.80
2019-03-31T13:14:27.045Z,6.80
2019-03-31T13:17:01.820Z,6.70
2019-03-31T13:19:33.625Z,6.90
2019-03-31T13:22:06.249Z,6.80
2019-03-31T13:24:37.889Z,6.90
2019-03-31T13:27:10.165Z,7.10
2019-03-31T13:29:44.177Z,6.80
2019-03-31T13:32:18.598Z,7.10
2019-03-31T13:34:51.367Z,7.00
2019-03-31T13:37:23.666Z,7.30
2019-03-31T13:39:54.842Z,7.10
2019-03-31T13:42:24.771Z,7.10
2019-03-31T13:44:54.669Z,7.20
2019-03-31T13:47:24.936Z,7.00
2019-03-31T13:49:54.986Z,7.00
2019-03-31T13:52:25.544Z,7.30
2019-03-31T13:54:58.573Z,6.90
2019-03-31T13:57:30.104Z,7.20
2019-03-31T14:00:00.589Z,7.20
2019-03-31T14:02:32.839Z,7.50
2019-03-31T14:05:05.092Z,7.40
2019-03-31T14:07:37.221Z,7.20
2019-03-31T14:10:07.914Z,7.30
2019-03-31T14:12:38.590Z,7.10
2019-03-31T14:15:19.492Z,7.00
2019-03-31T14:17:44.982Z,7.00
2019-03-31T14:20:14.456Z,7.30
2019-03-31T14:22:48.660Z,7.10
2019-03-31T14:25:19.076Z,7.30
2019-03-31T14:27:50.395Z,7.40
2019-03-31T14:30:22.802Z,7.50
2019-03-31T14:32:54.581Z,7.00
2019-03-31T14:35:27.812Z,7.10
2019-03-31T14:37:59.428Z,7.20
2019-03-31T14:40:31.885Z,7.20
2019-03-31T14:43:03.532Z,7.50
2019-03-31T14:45:41.092Z,7.50
2019-03-31T14:48:12.819Z,7.60
2019-03-31T14:50:43.973Z,7.10
2019-03-31T14:53:17.162Z,7.50
2019-03-31T14:55:50.022Z,7.20
2019-03-31T14:58:20.616Z,7.20
2019-03-31T15:00:51.188Z,7.00
2019-03-31T15:03:24.117Z,6.90
2019-03-31T15:05:55.800Z,7.10
2019-03-31T15:08:26.504Z,7.10
2019-03-31T15:10:57.110Z,7.20
2019-03-31T15:13:29.860Z,7.20
2019-03-31T15:16:03.374Z,7.40
2019-03-31T15:18:35.263Z,7.30
2019-03-31T15:21:05.305Z,7.20
2019-03-31T15:23:34.881Z,7.30
2019-03-31T15:26:06.230Z,7.20
2019-03-31T15:28:37.898Z,7.20
2019-03-31T15:31:08.405Z,7.20
2019-03-31T15:33:38.545Z,6.80
2019-03-31T15:36:13.296Z,7.00
2019-03-31T15:38:43.134Z,7.30
2019-03-31T15:41:20.980Z,7.10
2019-03-31T15:43:45.644Z,6.60
2019-03-31T15:46:16.905Z,6.60
2019-03-31T15:48:49.200Z,6.50
2019-03-31T15:51:19.030Z,6.40
2019-03-31T15:53:49.881Z,6.50
2019-03-31T15:56:22.664Z,6.40
2019-03-31T15:58:55.213Z,6.10
2019-03-31T16:01:26.352Z,6.40
2019-03-31T16:04:02.626Z,6.50
2019-03-31T16:06:36.491Z,6.50
2019-03-31T16:09:23.443Z,6.50
2019-03-31T16:11:53.578Z,6.60
2019-03-31T16:14:18.064Z,6.60
2019-03-31T16:16:48.101Z,6.50
2019-03-31T16:19:22.666Z,6.60
2019-03-31T16:21:53.971Z,6.50
2019-03-31T16:24:38.385Z,6.50
2019-03-31T16:27:11.721Z,6.60
2019-03-31T16:29:45.189Z,6.20
2019-03-31T16:32:16.232Z,6.30
2019-03-31T16:34:47.408Z,6.20
2019-03-31T16:37:18.458Z,6.10
2019-03-31T16:39:49.744Z,5.90
2019-03-31T16:42:21.236Z,5.80
2019-03-31T16:44:58.423Z,5.80
2019-03-31T16:47:30.764Z,5.70
2019-03-31T16:50:01.738Z,5.50
2019-03-31T16:52:32.701Z,5.50
2019-03-31T16:55:03.452Z,5.50
2019-03-31T16:57:33.350Z,5.40
2019-03-31T17:00:05.224Z,5.20
2019-03-31T17:02:38.025Z,5.30
2019-03-31T17:05:21.641Z,5.20
2019-03-31T17:07:41.938Z,5.10
2019-03-31T17:10:13.404Z,4.90
2019-03-31T17:12:44.509Z,5.00
2019-03-31T17:15:15.987Z,5.00
2019-03-31T17:17:49.577Z,4.90
2019-03-31T17:20:22.971Z,4.80
2019-03-31T17:22:53.725Z,4.70
2019-03-31T17:25:24.522Z,4.90
2019-03-31T17:27:54.949Z,4.70
2019-03-31T17:30:26.004Z,4.70
2019-03-31T17:32:58.080Z,4.60
2019-03-31T17:35:29.692Z,4.60
2019-03-31T17:38:02.538Z,4.60
2019-03-31T17:40:35.691Z,4.50
2019-03-31T17:43:08.377Z,4.40
2019-03-31T17:45:39.148Z,4.30
2019-03-31T17:48:09.296Z,4.20
2019-03-31T17:50:39.002Z,4.20
2019-03-31T17:53:09.486Z,4.20
2019-03-31T17:55:41.049Z,4.20
2019-03-31T17:58:10.892Z,4.10
2019-03-31T18:00:41.170Z,4.20
2019-03-31T18:03:15.553Z,4.00
2019-03-31T18:05:49.287Z,4.00
2019-03-31T18:08:20.789Z,4.00
2019-03-31T18:10:53.364Z,3.90
2019-03-31T18:13:25.030Z,4.00
2019-03-31T18:15:56.049Z,3.80
2019-03-31T18:18:28.028Z,3.90
2019-03-31T18:20:59.580Z,3.80
2019-03-31T18:23:32.117Z,3.80
2019-03-31T18:26:03.524Z,3.70
2019-03-31T18:28:37.913Z,3.70
2019-03-31T18:31:10.130Z,3.60
2019-03-31T18:33:41.893Z,3.70
2019-03-31T18:36:14.179Z,3.60
2019-03-31T18:38:45.957Z,3.70
2019-03-31T18:41:16.122Z,3.50
2019-03-31T18:43:51.790Z,3.50
2019-03-31T18:46:21.246Z,3.40
2019-03-31T18:48:54.669Z,3.40
2019-03-31T18:51:28.133Z,3.50
2019-03-31T18:54:12.140Z,3.30
2019-03-31T18:56:57.046Z,3.30
2019-03-31T18:59:55.782Z,3.20
2019-03-31T19:02:41.101Z,3.10
2019-03-31T19:05:33.403Z,3.00
2019-03-31T19:08:26.097Z,2.90
2019-03-31T19:11:15.051Z,2.90
2019-03-31T19:14:07.087Z,2.80
2019-03-31T19:16:58.833Z,2.70
2019-03-31T19:19:55.343Z,2.70
2019-03-31T19:22:44.349Z,2.60
2019-03-31T19:25:33.553Z,2.60
2019-03-31T19:28:33.557Z,2.50
2019-03-31T19:31:37.159Z,2.50
2019-03-31T19:34:29.128Z,2.40
2019-03-31T19:37:18.434Z,2.30
2019-03-31T19:40:08.483Z,2.30
2019-03-31T19:43:01.925Z,2.30
2019-03-31T19:46:07.744Z,2.30
2019-03-31T19:48:53.160Z,2.10
2019-03-31T19:51:43.240Z,2.20
2019-03-31T19:54:41.588Z,2.10
2019-03-31T19:57:36.870Z,2.10
2019-03-31T20:00:26.509Z,2.10
2019-03-31T20:03:21.862Z,2.10
2019-03-31T20:06:09.520Z,1.90
2019-03-31T20:09:03.820Z,2.00
2019-03-31T20:11:51.873Z,1.90
2019-03-31T20:14:33.654Z,1.90
2019-03-31T20:17:27.474Z,1.80
2019-03-31T20:20:10.267Z,1.80
2019-03-31T20:22:52.509Z,1.80
2019-03-31T20:25:40.637Z,1.80
2019-03-31T20:28:22.408Z,1.70
2019-03-31T20:31:18.730Z,1.70
2019-03-31T20:34:07.213Z,1.70
2019-03-31T20:37:00.534Z,1.60
2019-03-31T20:39:56.515Z,1.60
2019-03-31T20:42:47.196Z,1.70
2019-03-31T20:45:20.177Z,1.60
2019-03-31T20:47:50.660Z,1.60
2019-03-31T20:50:23.016Z,1.60
2019-03-31T20:52:55.017Z,1.60
2019-03-31T20:55:27.500Z,1.50
2019-03-31T20:57:57.740Z,1.60
2019-03-31T21:00:29.550Z,1.70
2019-03-31T21:02:59.673Z,1.60
2019-03-31T21:05:29.541Z,1.60
2019-03-31T21:07:58.392Z,1.60
2019-03-31T21:10:28.971Z,1.50
2019-03-31T21:13:03.133Z,1.40
2019-03-31T21:15:32.792Z,1.40
2019-03-31T21:18:02.409Z,1.30
2019-03-31T21:20:33.032Z,1.40
2019-03-31T21:23:05.228Z,1.30
2019-03-31T21:25:37.765Z,1.30
2019-03-31T21:28:10.571Z,1.30
2019-03-31T21:30:45.461Z,1.30
2019-03-31T21:33:17.216Z,1.30
2019-03-31T21:35:48.909Z,1.30
2019-03-31T21:38:19.297Z,1.20
2019-03-31T21:40:53.289Z,1.20
2019-03-31T21:43:24.816Z,1.20
2019-03-31T21:45:56.845Z,1.20
2019-03-31T21:48:28.708Z,1.10
2019-03-31T21:51:01.337Z,1.20
2019-03-31T21:53:30.971Z,1.20
2019-03-31T21:56:01.557Z,1.10
2019-03-31T21:58:34.023Z,1.10
2019-03-31T22:01:05.482Z,1.00
2019-03-31T22:03:34.989Z,1.10
2019-03-31T22:06:05.161Z,1.10
2019-03-31T22:08:37.097Z,1.20
2019-03-31T22:11:08.648Z,1.20
2019-03-31T22:13:40.767Z,1.10
2019-03-31T22:16:11.425Z,1.10
2019-03-31T22:18:41.108Z,1.10
2019-03-31T22:21:12.462Z,1.10
2019-03-31T22:23:57.393Z,1.10
2019-03-31T22:26:22.923Z,1.10
2019-03-31T22:28:54.519Z,1.10
2019-03-31T22:31:26.256Z,1.10
2019-03-31T22:33:58.469Z,1.10
2019-03-31T22:36:30.730Z,1.00
2019-03-31T22:39:03.782Z,1.10
2019-03-31T22:41:35.284Z,1.00
2019-03-31T22:44:06.678Z,1.00
2019-03-31T22:46:53.439Z,1.00
2019-03-31T22:49:12.980Z,1.10
2019-03-31T22:51:44.989Z,1.10
2019-03-31T22:54:18.802Z,1.10
2019-03-31T22:56:50.629Z,1.10
2019-03-31T22:59:22.569Z,1.10
2019-03-31T23:01:54.096Z,1.00
2019-03-31T23:04:25.038Z,0.90
2019-03-31T23:06:55.131Z,0.90
2019-03-31T23:09:26.605Z,0.90
2019-03-31T23:11:58.353Z,0.80
2019-03-31T23:14:29.648Z,0.70
2019-03-31T23:17:01.696Z,0.70
2019-03-31T23:19:31.529Z,0.70
2019-03-31T23:22:01.904Z,0.60
2019-03-31T23:24:33.081Z,0.70
2019-03-31T23:27:04.046Z,0.60
2019-03-31T23:29:36.030Z,0.60
2019-03-31T23:32:07.377Z,0.50
2019-03-31T23:34:40.648Z,0.50
2019-03-31T23:37:11.989Z,0.50
2019-03-31T23:39:44.785Z,0.50
2019-03-31T23:42:15.921Z,0.50
2019-03-31T23:44:48.528Z,0.40
2019-03-31T23:47:17.528Z,0.50
2019-03-31T23:49:48.456Z,0.50
2019-03-31T23:52:35.560Z,0.50
2019-03-31T23:55:09.985Z,0.50
2019-03-31T23:57:42.602Z,0.50
